Impacts TAF Board INFO
FOR SITUATIONAL AWARENESS. NOT TO BE USED FOR FLIGHT PLANNING PURPOSES.
IDs:

KMIA - Miami Intl, FL, US

Issued at 2057 UTC 21 Feb 2018
Updated at 2257 UTC 21 Feb 2018
Potential Impact None Slight Moderate High
Time<<22/11Z 22/12Z 22/13Z 22/14Z 22/15Z 22/16Z 22/17Z 22/18Z 22/19Z 22/20Z 22/21Z 22/22Z 22/23Z>>
Type PRVL PRVL PRVL PRVL PRVL PRVL PRVL PRVL PRVL PRVL PRVL PRVL PRVL
VIS >6 >6 >6 >6 >6 >6 >6 >6 >6 >6 >6 >6 >6
CIG -- -- -- -- -- -- -- -- -- -- -- -- --
Cover SCT SCT SCT SCT SCT SCT SCT SCT SCT SCT SCT SCT SCT
FltCat VFR VFR VFR VFR VFR VFR VFR VFR VFR VFR VFR VFR VFR
WX -- -- -- -- -- -- -- -- -- -- -- -- --
WDir 80 80 80 100 100 100 100 100 100 100 100 100 100
WSpd 9 9 9 15 15 15 15 15 15 15 15 15 15
WGst -- -- -- -- -- -- -- -- -- -- -- -- --

Raw TAF
KMIA 212057Z 2121/2224 10018KT P6SM SCT025 BKN035
  TEMPO 2121/2124 BKN025
  FM220200 08009KT P6SM FEW020 SCT035
  FM221400 10015KT P6SM SCT030


METAR Board
Radar Display
Forecast Discussion

FOR SITUATIONAL AWARENESS. NOT TO BE USED FOR FLIGHT PLANNING PURPOSES.